sensor_id;sensor_type;location;lat;lon;timestamp;pressure;altitude;pressure_sealevel;temperature;humidity
9307;BME280;4691;47.612;7.610;2023-04-26T00:00:42;98523.81;;;6.93;100.00
9307;BME280;4691;47.612;7.610;2023-04-26T00:03:07;98518.72;;;7.03;100.00
9307;BME280;4691;47.612;7.610;2023-04-26T00:05:32;98510.97;;;7.00;100.00
9307;BME280;4691;47.612;7.610;2023-04-26T00:08:00;98500.44;;;6.98;100.00
9307;BME280;4691;47.612;7.610;2023-04-26T00:10:25;98501.38;;;6.97;100.00
9307;BME280;4691;47.612;7.610;2023-04-26T00:12:50;98508.31;;;7.00;100.00
9307;BME280;4691;47.612;7.610;2023-04-26T00:15:17;98496.28;;;6.94;100.00
9307;BME280;4691;47.612;7.610;2023-04-26T00:17:42;98498.59;;;6.86;100.00
9307;BME280;4691;47.612;7.610;2023-04-26T00:20:09;98498.94;;;6.81;100.00
9307;BME280;4691;47.612;7.610;2023-04-26T00:22:35;98485.09;;;6.76;100.00
9307;BME280;4691;47.612;7.610;2023-04-26T00:25:01;98489.13;;;6.69;100.00
9307;BME280;4691;47.612;7.610;2023-04-26T00:27:26;98481.53;;;6.63;100.00
9307;BME280;4691;47.612;7.610;2023-04-26T00:29:51;98475.81;;;6.56;100.00
9307;BME280;4691;47.612;7.610;2023-04-26T00:32:17;98478.56;;;6.54;100.00
9307;BME280;4691;47.612;7.610;2023-04-26T00:34:42;98476.09;;;6.51;100.00
9307;BME280;4691;47.612;7.610;2023-04-26T00:37:07;98477.16;;;6.49;100.00
9307;BME280;4691;47.612;7.610;2023-04-26T00:39:33;98465.16;;;6.43;100.00
9307;BME280;4691;47.612;7.610;2023-04-26T00:41:58;98460.06;;;6.40;100.00
9307;BME280;4691;47.612;7.610;2023-04-26T00:44:23;98460.34;;;6.36;100.00
9307;BME280;4691;47.612;7.610;2023-04-26T00:46:51;98459.72;;;6.32;100.00
9307;BME280;4691;47.612;7.610;2023-04-26T00:49:19;98458.13;;;6.29;100.00
9307;BME280;4691;47.612;7.610;2023-04-26T00:51:46;98458.41;;;6.25;100.00
9307;BME280;4691;47.612;7.610;2023-04-26T00:54:13;98460.50;;;6.20;100.00
9307;BME280;4691;47.612;7.610;2023-04-26T00:56:38;98467.31;;;6.24;100.00
9307;BME280;4691;47.612;7.610;2023-04-26T00:59:04;98471.13;;;6.20;100.00
9307;BME280;4691;47.612;7.610;2023-04-26T01:01:29;98470.47;;;6.16;100.00
9307;BME280;4691;47.612;7.610;2023-04-26T01:03:55;98476.81;;;6.14;100.00
9307;BME280;4691;47.612;7.610;2023-04-26T01:06:23;98475.56;;;6.06;100.00
9307;BME280;4691;47.612;7.610;2023-04-26T01:08:52;98489.97;;;6.02;100.00
9307;BME280;4691;47.612;7.610;2023-04-26T01:11:19;98491.84;;;6.00;100.00
9307;BME280;4691;47.612;7.610;2023-04-26T01:13:46;98485.91;;;5.97;100.00
9307;BME280;4691;47.612;7.610;2023-04-26T01:16:12;98492.31;;;5.93;100.00
9307;BME280;4691;47.612;7.610;2023-04-26T01:18:38;98494.31;;;5.89;100.00
9307;BME280;4691;47.612;7.610;2023-04-26T01:21:03;98497.81;;;5.89;100.00
9307;BME280;4691;47.612;7.610;2023-04-26T01:23:29;98511.28;;;5.86;100.00
9307;BME280;4691;47.612;7.610;2023-04-26T01:25:54;98513.84;;;5.88;100.00
9307;BME280;4691;47.612;7.610;2023-04-26T01:28:20;98515.94;;;5.83;100.00
9307;BME280;4691;47.612;7.610;2023-04-26T01:30:45;98526.75;;;5.80;100.00
9307;BME280;4691;47.612;7.610;2023-04-26T01:33:11;98519.19;;;5.74;100.00
9307;BME280;4691;47.612;7.610;2023-04-26T01:35:36;98530.06;;;5.69;100.00
9307;BME280;4691;47.612;7.610;2023-04-26T01:38:01;98536.22;;;5.70;100.00
9307;BME280;4691;47.612;7.610;2023-04-26T01:40:28;98568.53;;;5.62;100.00
9307;BME280;4691;47.612;7.610;2023-04-26T01:42:53;98563.34;;;5.60;100.00
9307;BME280;4691;47.612;7.610;2023-04-26T01:45:18;98568.66;;;5.60;100.00
9307;BME280;4691;47.612;7.610;2023-04-26T01:47:44;98576.03;;;5.55;100.00
9307;BME280;4691;47.612;7.610;2023-04-26T01:50:09;98577.16;;;5.51;100.00
9307;BME280;4691;47.612;7.610;2023-04-26T01:52:35;98584.47;;;5.48;100.00
9307;BME280;4691;47.612;7.610;2023-04-26T01:55:00;98587.19;;;5.46;100.00
9307;BME280;4691;47.612;7.610;2023-04-26T01:57:25;98590.50;;;5.50;100.00
9307;BME280;4691;47.612;7.610;2023-04-26T01:59:50;98594.59;;;5.55;100.00
9307;BME280;4691;47.612;7.610;2023-04-26T02:02:16;98635.03;;;5.59;100.00
9307;BME280;4691;47.612;7.610;2023-04-26T02:04:43;98731.56;;;5.56;100.00
9307;BME280;4691;47.612;7.610;2023-04-26T02:07:08;98721.94;;;5.70;100.00
9307;BME280;4691;47.612;7.610;2023-04-26T02:09:33;98721.47;;;5.63;100.00
9307;BME280;4691;47.612;7.610;2023-04-26T02:11:59;98718.16;;;5.74;100.00
9307;BME280;4691;47.612;7.610;2023-04-26T02:14:24;98715.59;;;6.17;100.00
9307;BME280;4691;47.612;7.610;2023-04-26T02:19:31;98279.91;;;6.96;100.00
9307;BME280;4691;47.612;7.610;2023-04-26T02:21:57;98320.34;;;6.25;100.00
9307;BME280;4691;47.612;7.610;2023-04-26T02:24:23;98358.88;;;5.90;100.00
9307;BME280;4691;47.612;7.610;2023-04-26T02:26:49;98397.28;;;5.85;100.00
9307;BME280;4691;47.612;7.610;2023-04-26T02:29:14;98428.34;;;5.83;100.00
9307;BME280;4691;47.612;7.610;2023-04-26T02:31:40;98447.25;;;5.78;100.00
9307;BME280;4691;47.612;7.610;2023-04-26T02:34:05;98463.06;;;5.80;100.00
9307;BME280;4691;47.612;7.610;2023-04-26T02:36:30;98462.84;;;5.83;100.00
9307;BME280;4691;47.612;7.610;2023-04-26T02:38:57;98466.28;;;5.85;100.00
9307;BME280;4691;47.612;7.610;2023-04-26T02:41:22;98488.53;;;5.82;100.00
9307;BME280;4691;47.612;7.610;2023-04-26T02:43:49;98501.38;;;5.76;100.00
9307;BME280;4691;47.612;7.610;2023-04-26T02:46:14;98508.84;;;5.69;100.00
9307;BME280;4691;47.612;7.610;2023-04-26T02:48:39;98518.41;;;5.72;100.00
9307;BME280;4691;47.612;7.610;2023-04-26T02:51:04;98515.59;;;5.60;100.00
9307;BME280;4691;47.612;7.610;2023-04-26T02:53:30;98536.53;;;5.51;100.00
9307;BME280;4691;47.612;7.610;2023-04-26T02:55:55;98530.38;;;5.50;100.00
9307;BME280;4691;47.612;7.610;2023-04-26T02:58:20;98540.19;;;5.62;100.00
9307;BME280;4691;47.612;7.610;2023-04-26T03:00:46;98545.31;;;5.51;100.00
9307;BME280;4691;47.612;7.610;2023-04-26T03:03:12;98551.00;;;5.59;100.00
9307;BME280;4691;47.612;7.610;2023-04-26T03:05:37;98582.66;;;5.62;100.00
9307;BME280;4691;47.612;7.610;2023-04-26T03:08:03;98590.03;;;5.72;100.00
9307;BME280;4691;47.612;7.610;2023-04-26T03:10:28;98611.44;;;5.83;100.00
9307;BME280;4691;47.612;7.610;2023-04-26T03:12:53;98610.22;;;5.74;100.00
9307;BME280;4691;47.612;7.610;2023-04-26T03:15:19;98611.00;;;5.76;100.00
9307;BME280;4691;47.612;7.610;2023-04-26T03:17:44;98609.59;;;5.71;100.00
9307;BME280;4691;47.612;7.610;2023-04-26T03:20:10;98615.94;;;5.68;100.00
9307;BME280;4691;47.612;7.610;2023-04-26T03:22:35;98609.97;;;5.79;100.00
9307;BME280;4691;47.612;7.610;2023-04-26T03:25:01;98629.28;;;5.81;100.00
9307;BME280;4691;47.612;7.610;2023-04-26T03:27:27;98625.88;;;5.79;100.00
9307;BME280;4691;47.612;7.610;2023-04-26T03:29:53;98649.38;;;6.84;100.00
9307;BME280;4691;47.612;7.610;2023-04-26T03:32:18;98620.19;;;5.85;100.00
9307;BME280;4691;47.612;7.610;2023-04-26T03:34:43;98642.56;;;5.81;100.00
9307;BME280;4691;47.612;7.610;2023-04-26T03:37:08;98651.56;;;5.78;100.00
9307;BME280;4691;47.612;7.610;2023-04-26T03:39:34;98649.47;;;5.69;100.00
9307;BME280;4691;47.612;7.610;2023-04-26T03:41:59;98662.06;;;5.65;100.00
9307;BME280;4691;47.612;7.610;2023-04-26T03:44:25;98665.28;;;5.71;100.00
9307;BME280;4691;47.612;7.610;2023-04-26T03:46:50;98672.09;;;5.75;100.00
9307;BME280;4691;47.612;7.610;2023-04-26T03:49:16;98643.34;;;5.97;100.00
9307;BME280;4691;47.612;7.610;2023-04-26T03:51:41;98633.63;;;5.67;100.00
9307;BME280;4691;47.612;7.610;2023-04-26T03:54:06;98639.31;;;5.61;100.00
9307;BME280;4691;47.612;7.610;2023-04-26T03:56:31;98658.84;;;5.60;100.00
9307;BME280;4691;47.612;7.610;2023-04-26T03:58:57;98656.06;;;5.62;100.00
9307;BME280;4691;47.612;7.610;2023-04-26T04:01:22;98651.22;;;5.40;100.00
9307;BME280;4691;47.612;7.610;2023-04-26T04:03:48;98651.75;;;5.31;100.00
9307;BME280;4691;47.612;7.610;2023-04-26T04:06:13;98654.78;;;5.24;100.00
9307;BME280;4691;47.612;7.610;2023-04-26T04:08:38;98658.72;;;5.17;100.00
9307;BME280;4691;47.612;7.610;2023-04-26T04:11:04;98651.47;;;5.05;100.00
9307;BME280;4691;47.612;7.610;2023-04-26T04:13:29;98634.22;;;4.98;100.00
9307;BME280;4691;47.612;7.610;2023-04-26T04:15:54;98642.78;;;4.87;100.00
9307;BME280;4691;47.612;7.610;2023-04-26T04:18:20;98639.56;;;4.82;100.00
9307;BME280;4691;47.612;7.610;2023-04-26T04:20:45;98632.56;;;4.81;100.00
9307;BME280;4691;47.612;7.610;2023-04-26T04:23:10;98633.78;;;4.75;100.00
9307;BME280;4691;47.612;7.610;2023-04-26T04:25:36;98641.28;;;4.83;100.00
9307;BME280;4691;47.612;7.610;2023-04-26T04:28:02;98644.78;;;4.84;100.00
9307;BME280;4691;47.612;7.610;2023-04-26T04:30:28;98647.06;;;4.90;100.00
9307;BME280;4691;47.612;7.610;2023-04-26T04:32:54;98650.94;;;4.84;100.00
9307;BME280;4691;47.612;7.610;2023-04-26T04:35:19;98656.88;;;4.88;100.00
9307;BME280;4691;47.612;7.610;2023-04-26T04:37:44;98655.19;;;4.87;100.00
9307;BME280;4691;47.612;7.610;2023-04-26T04:40:10;98657.59;;;4.91;100.00
9307;BME280;4691;47.612;7.610;2023-04-26T04:42:37;98663.47;;;4.96;100.00
9307;BME280;4691;47.612;7.610;2023-04-26T04:45:02;98654.84;;;4.93;100.00
9307;BME280;4691;47.612;7.610;2023-04-26T04:47:29;98658.94;;;4.83;100.00
9307;BME280;4691;47.612;7.610;2023-04-26T04:49:54;98655.56;;;4.80;100.00
9307;BME280;4691;47.612;7.610;2023-04-26T04:52:19;98657.91;;;4.85;100.00
9307;BME280;4691;47.612;7.610;2023-04-26T04:54:46;98666.47;;;4.90;100.00
9307;BME280;4691;47.612;7.610;2023-04-26T04:57:11;98664.50;;;4.94;100.00
9307;BME280;4691;47.612;7.610;2023-04-26T04:59:37;98673.03;;;4.99;100.00
9307;BME280;4691;47.612;7.610;2023-04-26T05:02:03;98673.75;;;4.87;100.00
9307;BME280;4691;47.612;7.610;2023-04-26T05:04:28;98685.53;;;4.97;100.00
9307;BME280;4691;47.612;7.610;2023-04-26T05:06:55;98677.78;;;5.08;100.00
9307;BME280;4691;47.612;7.610;2023-04-26T05:09:21;98683.34;;;5.19;100.00
9307;BME280;4691;47.612;7.610;2023-04-26T05:11:46;98690.13;;;5.09;100.00
9307;BME280;4691;47.612;7.610;2023-04-26T05:14:12;98671.28;;;4.84;100.00
9307;BME280;4691;47.612;7.610;2023-04-26T05:16:37;98671.88;;;4.89;100.00
9307;BME280;4691;47.612;7.610;2023-04-26T05:19:02;98658.84;;;5.00;100.00
9307;BME280;4691;47.612;7.610;2023-04-26T05:21:28;98655.78;;;4.92;100.00
9307;BME280;4691;47.612;7.610;2023-04-26T05:23:53;98657.22;;;4.97;100.00
9307;BME280;4691;47.612;7.610;2023-04-26T05:26:18;98655.59;;;4.95;100.00
9307;BME280;4691;47.612;7.610;2023-04-26T05:28:43;98644.75;;;4.99;100.00
9307;BME280;4691;47.612;7.610;2023-04-26T05:31:10;98627.28;;;5.11;100.00
9307;BME280;4691;47.612;7.610;2023-04-26T05:33:36;98620.00;;;5.15;100.00
9307;BME280;4691;47.612;7.610;2023-04-26T05:36:01;98609.19;;;5.18;100.00
9307;BME280;4691;47.612;7.610;2023-04-26T05:38:26;98590.19;;;5.26;100.00
9307;BME280;4691;47.612;7.610;2023-04-26T05:40:52;98570.28;;;5.18;100.00
9307;BME280;4691;47.612;7.610;2023-04-26T05:43:18;98550.34;;;5.27;100.00
9307;BME280;4691;47.612;7.610;2023-04-26T05:45:51;98531.88;;;5.26;100.00
9307;BME280;4691;47.612;7.610;2023-04-26T05:48:16;98508.56;;;5.31;100.00
9307;BME280;4691;47.612;7.610;2023-04-26T05:50:42;98477.97;;;5.39;100.00
9307;BME280;4691;47.612;7.610;2023-04-26T05:53:07;98460.19;;;5.41;100.00
9307;BME280;4691;47.612;7.610;2023-04-26T05:55:32;98422.41;;;5.38;100.00
9307;BME280;4691;47.612;7.610;2023-04-26T05:57:57;98398.91;;;5.32;100.00
9307;BME280;4691;47.612;7.610;2023-04-26T06:00:23;98376.16;;;5.42;100.00
9307;BME280;4691;47.612;7.610;2023-04-26T06:02:49;98357.72;;;5.67;100.00
9307;BME280;4691;47.612;7.610;2023-04-26T06:05:14;98335.38;;;5.72;100.00
9307;BME280;4691;47.612;7.610;2023-04-26T06:07:39;98294.75;;;5.84;100.00
9307;BME280;4691;47.612;7.610;2023-04-26T06:10:05;98269.53;;;5.91;100.00
9307;BME280;4691;47.612;7.610;2023-04-26T06:12:31;98212.81;;;5.92;100.00
9307;BME280;4691;47.612;7.610;2023-04-26T06:14:57;98155.31;;;6.05;100.00
9307;BME280;4691;47.612;7.610;2023-04-26T06:17:22;98071.78;;;5.98;100.00
9307;BME280;4691;47.612;7.610;2023-04-26T06:19:47;97995.19;;;6.18;100.00
9307;BME280;4691;47.612;7.610;2023-04-26T06:22:12;97926.41;;;6.15;100.00
9307;BME280;4691;47.612;7.610;2023-04-26T06:24:38;97907.75;;;6.27;100.00
9307;BME280;4691;47.612;7.610;2023-04-26T06:27:03;97882.84;;;6.52;100.00
9307;BME280;4691;47.612;7.610;2023-04-26T06:29:31;97853.41;;;6.78;100.00
9307;BME280;4691;47.612;7.610;2023-04-26T06:31:56;97860.91;;;6.84;100.00
9307;BME280;4691;47.612;7.610;2023-04-26T06:34:22;97881.44;;;7.16;100.00
9307;BME280;4691;47.612;7.610;2023-04-26T06:36:47;97913.84;;;7.21;100.00
9307;BME280;4691;47.612;7.610;2023-04-26T06:39:12;97942.25;;;7.20;100.00
9307;BME280;4691;47.612;7.610;2023-04-26T06:41:37;97969.19;;;7.50;100.00
9307;BME280;4691;47.612;7.610;2023-04-26T06:44:03;98028.34;;;7.64;100.00
9307;BME280;4691;47.612;7.610;2023-04-26T06:46:28;98066.47;;;7.76;100.00
9307;BME280;4691;47.612;7.610;2023-04-26T06:48:53;98115.69;;;7.71;100.00
9307;BME280;4691;47.612;7.610;2023-04-26T06:54:43;98268.00;;;8.21;100.00
9307;BME280;4691;47.612;7.610;2023-04-26T06:57:09;98350.09;;;8.51;100.00
9307;BME280;4691;47.612;7.610;2023-04-26T06:59:34;98423.63;;;8.65;100.00
9307;BME280;4691;47.612;7.610;2023-04-26T07:02:00;98460.19;;;8.98;100.00
9307;BME280;4691;47.612;7.610;2023-04-26T07:07:49;98608.19;;;8.92;100.00
9307;BME280;4691;47.612;7.610;2023-04-26T07:10:14;98624.63;;;9.10;100.00
9307;BME280;4691;47.612;7.610;2023-04-26T07:12:39;98657.78;;;8.95;100.00
9307;BME280;4691;47.612;7.610;2023-04-26T07:15:05;98656.19;;;8.92;100.00
9307;BME280;4691;47.612;7.610;2023-04-26T07:17:31;98669.63;;;8.91;100.00
9307;BME280;4691;47.612;7.610;2023-04-26T07:19:57;98672.22;;;9.04;100.00
9307;BME280;4691;47.612;7.610;2023-04-26T07:22:22;98659.09;;;8.89;100.00
9307;BME280;4691;47.612;7.610;2023-04-26T07:24:47;98652.69;;;8.92;100.00
9307;BME280;4691;47.612;7.610;2023-04-26T07:27:13;98641.63;;;9.09;100.00
9307;BME280;4691;47.612;7.610;2023-04-26T07:29:38;98654.09;;;9.44;100.00
9307;BME280;4691;47.612;7.610;2023-04-26T07:32:04;98655.59;;;9.48;100.00
9307;BME280;4691;47.612;7.610;2023-04-26T07:34:29;98676.53;;;9.77;100.00
9307;BME280;4691;47.612;7.610;2023-04-26T07:36:54;98694.22;;;9.78;100.00
9307;BME280;4691;47.612;7.610;2023-04-26T07:39:20;98717.25;;;9.56;100.00
9307;BME280;4691;47.612;7.610;2023-04-26T07:41:46;98721.09;;;9.88;100.00
9307;BME280;4691;47.612;7.610;2023-04-26T07:44:11;98734.78;;;9.83;100.00
9307;BME280;4691;47.612;7.610;2023-04-26T07:46:36;98705.06;;;9.88;100.00
9307;BME280;4691;47.612;7.610;2023-04-26T07:49:02;98719.41;;;9.87;100.00
9307;BME280;4691;47.612;7.610;2023-04-26T07:51:27;98734.94;;;9.93;100.00
9307;BME280;4691;47.612;7.610;2023-04-26T07:53:53;98741.94;;;10.18;100.00
9307;BME280;4691;47.612;7.610;2023-04-26T07:56:20;98721.06;;;10.34;100.00
9307;BME280;4691;47.612;7.610;2023-04-26T07:58:45;98731.66;;;10.70;100.00
9307;BME280;4691;47.612;7.610;2023-04-26T08:01:10;98752.44;;;10.77;100.00
9307;BME280;4691;47.612;7.610;2023-04-26T08:03:36;98756.03;;;11.21;100.00
9307;BME280;4691;47.612;7.610;2023-04-26T08:06:02;98768.31;;;11.67;100.00
9307;BME280;4691;47.612;7.610;2023-04-26T08:08:28;98790.38;;;11.60;100.00
9307;BME280;4691;47.612;7.610;2023-04-26T08:10:54;98790.81;;;11.21;100.00
9307;BME280;4691;47.612;7.610;2023-04-26T08:13:20;98782.31;;;11.60;100.00
9307;BME280;4691;47.612;7.610;2023-04-26T08:15:45;98775.19;;;11.49;100.00
9307;BME280;4691;47.612;7.610;2023-04-26T08:18:11;98776.28;;;11.78;100.00
9307;BME280;4691;47.612;7.610;2023-04-26T08:20:37;98801.09;;;11.92;100.00
9307;BME280;4691;47.612;7.610;2023-04-26T08:23:02;98802.22;;;11.78;100.00
9307;BME280;4691;47.612;7.610;2023-04-26T08:25:28;98801.44;;;11.55;100.00
9307;BME280;4691;47.612;7.610;2023-04-26T08:27:53;98789.00;;;10.99;100.00
9307;BME280;4691;47.612;7.610;2023-04-26T08:30:19;98750.97;;;10.96;100.00
9307;BME280;4691;47.612;7.610;2023-04-26T08:32:45;98721.13;;;11.11;100.00
9307;BME280;4691;47.612;7.610;2023-04-26T08:35:10;98722.88;;;10.79;100.00
9307;BME280;4691;47.612;7.610;2023-04-26T08:37:36;98699.41;;;10.71;100.00
9307;BME280;4691;47.612;7.610;2023-04-26T08:40:03;98701.97;;;11.60;100.00
9307;BME280;4691;47.612;7.610;2023-04-26T08:42:29;98751.53;;;11.97;100.00
9307;BME280;4691;47.612;7.610;2023-04-26T08:44:59;98784.72;;;12.06;100.00
9307;BME280;4691;47.612;7.610;2023-04-26T08:47:28;98789.84;;;11.66;100.00
9307;BME280;4691;47.612;7.610;2023-04-26T08:50:01;98808.25;;;12.03;100.00
9307;BME280;4691;47.612;7.610;2023-04-26T08:52:30;98812.78;;;12.23;100.00
9307;BME280;4691;47.612;7.610;2023-04-26T08:54:57;98816.50;;;12.32;100.00
9307;BME280;4691;47.612;7.610;2023-04-26T08:57:23;98821.94;;;12.41;100.00
9307;BME280;4691;47.612;7.610;2023-04-26T08:59:49;98832.97;;;12.48;100.00
9307;BME280;4691;47.612;7.610;2023-04-26T09:02:20;98843.25;;;12.64;100.00
9307;BME280;4691;47.612;7.610;2023-04-26T09:04:46;98847.09;;;12.50;100.00
9307;BME280;4691;47.612;7.610;2023-04-26T09:07:39;98848.97;;;12.17;100.00
9307;BME280;4691;47.612;7.610;2023-04-26T09:10:06;98844.75;;;12.36;100.00
9307;BME280;4691;47.612;7.610;2023-04-26T09:12:32;98854.09;;;12.20;100.00
9307;BME280;4691;47.612;7.610;2023-04-26T09:14:57;98861.75;;;11.93;100.00
9307;BME280;4691;47.612;7.610;2023-04-26T09:17:36;98853.78;;;12.77;100.00
9307;BME280;4691;47.612;7.610;2023-04-26T09:20:21;98848.09;;;12.70;100.00
9307;BME280;4691;47.612;7.610;2023-04-26T09:26:19;98848.16;;;13.51;100.00
9307;BME280;4691;47.612;7.610;2023-04-26T09:28:45;98852.59;;;13.62;100.00
9307;BME280;4691;47.612;7.610;2023-04-26T09:31:34;98863.78;;;14.64;100.00
9307;BME280;4691;47.612;7.610;2023-04-26T09:34:00;98868.47;;;14.72;100.00
9307;BME280;4691;47.612;7.610;2023-04-26T09:36:26;98869.97;;;15.03;100.00
9307;BME280;4691;47.612;7.610;2023-04-26T09:38:51;98883.94;;;14.21;100.00
9307;BME280;4691;47.612;7.610;2023-04-26T09:41:17;98874.09;;;13.62;100.00
9307;BME280;4691;47.612;7.610;2023-04-26T09:43:42;98864.63;;;13.77;100.00
9307;BME280;4691;47.612;7.610;2023-04-26T09:46:07;98876.78;;;13.62;100.00
9307;BME280;4691;47.612;7.610;2023-04-26T09:48:33;98880.47;;;13.30;100.00
9307;BME280;4691;47.612;7.610;2023-04-26T09:51:09;98885.19;;;13.47;100.00
9307;BME280;4691;47.612;7.610;2023-04-26T09:53:45;98880.03;;;13.65;100.00
9307;BME280;4691;47.612;7.610;2023-04-26T09:56:12;98882.50;;;14.66;100.00
9307;BME280;4691;47.612;7.610;2023-04-26T09:58:58;98880.94;;;14.73;100.00
9307;BME280;4691;47.612;7.610;2023-04-26T10:01:26;98891.31;;;15.15;100.00
9307;BME280;4691;47.612;7.610;2023-04-26T10:03:59;98883.25;;;15.05;100.00
9307;BME280;4691;47.612;7.610;2023-04-26T10:06:26;98896.59;;;15.07;100.00
9307;BME280;4691;47.612;7.610;2023-04-26T10:08:52;98897.00;;;15.49;100.00
9307;BME280;4691;47.612;7.610;2023-04-26T10:11:19;98891.69;;;17.45;100.00
9307;BME280;4691;47.612;7.610;2023-04-26T10:13:45;98884.63;;;16.91;100.00
9307;BME280;4691;47.612;7.610;2023-04-26T10:16:10;98904.09;;;16.41;100.00
9307;BME280;4691;47.612;7.610;2023-04-26T10:18:36;98897.78;;;16.15;100.00
9307;BME280;4691;47.612;7.610;2023-04-26T10:21:15;98917.06;;;15.64;100.00
9307;BME280;4691;47.612;7.610;2023-04-26T10:23:44;98912.53;;;14.80;100.00
9307;BME280;4691;47.612;7.610;2023-04-26T10:26:47;98909.91;;;15.08;100.00
9307;BME280;4691;47.612;7.610;2023-04-26T10:29:13;98895.50;;;16.64;100.00
9307;BME280;4691;47.612;7.610;2023-04-26T10:34:27;98879.97;;;17.36;100.00
9307;BME280;4691;47.612;7.610;2023-04-26T10:37:12;98879.22;;;18.02;100.00
9307;BME280;4691;47.612;7.610;2023-04-26T10:39:41;98854.34;;;19.13;100.00
9307;BME280;4691;47.612;7.610;2023-04-26T10:44:51;98879.47;;;18.50;100.00
9307;BME280;4691;47.612;7.610;2023-04-26T10:47:29;98895.09;;;17.89;100.00
9307;BME280;4691;47.612;7.610;2023-04-26T10:50:07;98910.59;;;18.30;100.00
9307;BME280;4691;47.612;7.610;2023-04-26T10:52:35;98890.31;;;18.91;100.00
9307;BME280;4691;47.612;7.610;2023-04-26T10:55:00;98882.66;;;19.19;100.00
9307;BME280;4691;47.612;7.610;2023-04-26T10:57:52;98864.53;;;19.11;100.00
9307;BME280;4691;47.612;7.610;2023-04-26T11:00:25;98877.41;;;18.44;100.00
9307;BME280;4691;47.612;7.610;2023-04-26T11:05:33;98874.31;;;17.98;100.00
9307;BME280;4691;47.612;7.610;2023-04-26T11:10:30;98906.88;;;17.11;100.00
9307;BME280;4691;47.612;7.610;2023-04-26T11:13:02;98887.44;;;16.46;100.00
9307;BME280;4691;47.612;7.610;2023-04-26T11:15:29;98905.78;;;17.30;100.00
9307;BME280;4691;47.612;7.610;2023-04-26T11:17:55;98876.75;;;17.32;100.00
9307;BME280;4691;47.612;7.610;2023-04-26T11:20:20;98887.72;;;17.31;100.00
9307;BME280;4691;47.612;7.610;2023-04-26T11:22:46;98889.78;;;17.37;100.00
9307;BME280;4691;47.612;7.610;2023-04-26T11:25:11;98899.44;;;16.87;100.00
9307;BME280;4691;47.612;7.610;2023-04-26T11:27:37;98886.28;;;17.18;100.00
9307;BME280;4691;47.612;7.610;2023-04-26T11:30:03;98874.31;;;17.55;100.00
9307;BME280;4691;47.612;7.610;2023-04-26T11:32:29;98870.41;;;16.89;100.00
9307;BME280;4691;47.612;7.610;2023-04-26T11:34:54;98887.69;;;16.96;100.00
9307;BME280;4691;47.612;7.610;2023-04-26T11:37:19;98859.47;;;18.10;100.00
9307;BME280;4691;47.612;7.610;2023-04-26T11:39:45;98841.28;;;17.78;100.00
9307;BME280;4691;47.612;7.610;2023-04-26T11:45:34;98839.50;;;18.44;100.00
9307;BME280;4691;47.612;7.610;2023-04-26T11:48:01;98851.03;;;18.38;100.00
9307;BME280;4691;47.612;7.610;2023-04-26T11:50:28;98853.88;;;18.03;100.00
9307;BME280;4691;47.612;7.610;2023-04-26T11:52:56;98827.50;;;18.14;100.00
9307;BME280;4691;47.612;7.610;2023-04-26T11:58:47;98824.78;;;18.71;100.00
9307;BME280;4691;47.612;7.610;2023-04-26T12:01:19;98817.16;;;18.99;100.00
9307;BME280;4691;47.612;7.610;2023-04-26T12:03:49;98830.69;;;18.83;100.00
9307;BME280;4691;47.612;7.610;2023-04-26T12:06:14;98809.97;;;19.54;100.00
9307;BME280;4691;47.612;7.610;2023-04-26T12:08:39;98819.22;;;18.07;100.00
9307;BME280;4691;47.612;7.610;2023-04-26T12:11:05;98836.63;;;18.13;100.00
9307;BME280;4691;47.612;7.610;2023-04-26T12:13:30;98840.13;;;17.80;100.00
9307;BME280;4691;47.612;7.610;2023-04-26T12:15:57;98796.84;;;18.87;100.00
9307;BME280;4691;47.612;7.610;2023-04-26T12:18:29;98782.38;;;19.11;100.00
9307;BME280;4691;47.612;7.610;2023-04-26T12:20:57;98741.09;;;19.71;100.00
9307;BME280;4691;47.612;7.610;2023-04-26T12:23:23;98736.59;;;20.77;100.00
9307;BME280;4691;47.612;7.610;2023-04-26T12:25:55;98747.84;;;20.74;100.00
9307;BME280;4691;47.612;7.610;2023-04-26T12:28:22;98713.00;;;22.02;100.00
9307;BME280;4691;47.612;7.610;2023-04-26T12:30:48;98703.69;;;21.96;100.00
9307;BME280;4691;47.612;7.610;2023-04-26T12:33:14;98656.38;;;23.36;100.00
9307;BME280;4691;47.612;7.610;2023-04-26T12:35:40;98677.72;;;22.78;100.00
9307;BME280;4691;47.612;7.610;2023-04-26T12:38:06;98683.66;;;22.53;100.00
9307;BME280;4691;47.612;7.610;2023-04-26T12:40:31;98685.53;;;22.53;100.00
9307;BME280;4691;47.612;7.610;2023-04-26T12:42:57;98652.22;;;23.60;100.00
9307;BME280;4691;47.612;7.610;2023-04-26T12:45:23;98630.41;;;24.53;100.00
9307;BME280;4691;47.612;7.610;2023-04-26T12:47:53;98635.06;;;23.86;100.00
9307;BME280;4691;47.612;7.610;2023-04-26T12:50:19;98639.66;;;24.59;100.00
9307;BME280;4691;47.612;7.610;2023-04-26T12:52:45;98626.13;;;24.84;100.00
9307;BME280;4691;47.612;7.610;2023-04-26T12:55:12;98608.78;;;24.97;100.00
9307;BME280;4691;47.612;7.610;2023-04-26T12:57:39;98589.66;;;25.67;100.00
9307;BME280;4691;47.612;7.610;2023-04-26T13:00:08;98583.53;;;25.72;100.00
9307;BME280;4691;47.612;7.610;2023-04-26T13:02:34;98597.75;;;25.80;100.00
9307;BME280;4691;47.612;7.610;2023-04-26T13:05:00;98628.03;;;25.29;100.00
9307;BME280;4691;47.612;7.610;2023-04-26T13:07:38;98585.75;;;26.06;100.00
9307;BME280;4691;47.612;7.610;2023-04-26T13:10:04;98566.56;;;25.88;100.00
9307;BME280;4691;47.612;7.610;2023-04-26T13:12:30;98600.63;;;23.92;100.00
9307;BME280;4691;47.612;7.610;2023-04-26T13:14:56;98616.78;;;24.20;100.00
9307;BME280;4691;47.612;7.610;2023-04-26T13:17:23;98608.75;;;23.39;100.00
9307;BME280;4691;47.612;7.610;2023-04-26T13:19:48;98619.69;;;22.91;100.00
9307;BME280;4691;47.612;7.610;2023-04-26T13:22:14;98652.13;;;21.88;100.00
9307;BME280;4691;47.612;7.610;2023-04-26T13:24:40;98638.75;;;22.14;100.00
9307;BME280;4691;47.612;7.610;2023-04-26T13:27:05;98645.94;;;21.51;100.00
9307;BME280;4691;47.612;7.610;2023-04-26T13:29:31;98639.34;;;22.38;100.00
9307;BME280;4691;47.612;7.610;2023-04-26T13:31:57;98657.44;;;21.96;100.00
9307;BME280;4691;47.612;7.610;2023-04-26T13:34:26;98671.78;;;20.74;100.00
9307;BME280;4691;47.612;7.610;2023-04-26T13:36:52;98687.13;;;20.67;100.00
9307;BME280;4691;47.612;7.610;2023-04-26T13:39:17;98694.25;;;20.15;100.00
9307;BME280;4691;47.612;7.610;2023-04-26T13:41:42;98687.59;;;20.56;100.00
9307;BME280;4691;47.612;7.610;2023-04-26T13:44:08;98683.09;;;21.44;100.00